sensor_id;sensor_type;location;lat;lon;timestamp;P1;durP1;ratioP1;P2;durP2;ratioP2
52180;SDS011;38158;53.338;6.514;2024-01-07T00:00:19;10.00;;;6.85;;
52180;SDS011;38158;53.338;6.514;2024-01-07T00:02:45;9.98;;;5.93;;
52180;SDS011;38158;53.338;6.514;2024-01-07T00:05:13;11.00;;;6.35;;
52180;SDS011;38158;53.338;6.514;2024-01-07T00:07:39;11.32;;;5.70;;
52180;SDS011;38158;53.338;6.514;2024-01-07T00:10:05;9.77;;;6.03;;
52180;SDS011;38158;53.338;6.514;2024-01-07T00:12:31;9.82;;;5.30;;
52180;SDS011;38158;53.338;6.514;2024-01-07T00:14:56;11.95;;;6.10;;
52180;SDS011;38158;53.338;6.514;2024-01-07T00:17:22;10.30;;;6.55;;
52180;SDS011;38158;53.338;6.514;2024-01-07T00:19:48;11.15;;;5.53;;
52180;SDS011;38158;53.338;6.514;2024-01-07T00:22:14;9.85;;;5.93;;
52180;SDS011;38158;53.338;6.514;2024-01-07T00:24:39;10.00;;;5.70;;
52180;SDS011;38158;53.338;6.514;2024-01-07T00:27:05;17.33;;;6.70;;
52180;SDS011;38158;53.338;6.514;2024-01-07T00:29:32;7.80;;;4.93;;
52180;SDS011;38158;53.338;6.514;2024-01-07T00:34:25;9.38;;;5.18;;
52180;SDS011;38158;53.338;6.514;2024-01-07T00:36:51;9.23;;;5.40;;
52180;SDS011;38158;53.338;6.514;2024-01-07T00:39:16;8.60;;;4.78;;
52180;SDS011;38158;53.338;6.514;2024-01-07T00:41:44;9.57;;;5.03;;
52180;SDS011;38158;53.338;6.514;2024-01-07T00:44:10;9.93;;;5.57;;
52180;SDS011;38158;53.338;6.514;2024-01-07T00:46:36;8.38;;;5.10;;
52180;SDS011;38158;53.338;6.514;2024-01-07T00:49:01;11.38;;;5.53;;
52180;SDS011;38158;53.338;6.514;2024-01-07T00:51:27;11.32;;;6.55;;
52180;SDS011;38158;53.338;6.514;2024-01-07T00:53:53;9.52;;;6.00;;
52180;SDS011;38158;53.338;6.514;2024-01-07T00:56:19;9.02;;;5.93;;
52180;SDS011;38158;53.338;6.514;2024-01-07T00:58:44;9.90;;;5.78;;
52180;SDS011;38158;53.338;6.514;2024-01-07T01:01:10;11.43;;;6.18;;
52180;SDS011;38158;53.338;6.514;2024-01-07T01:03:35;10.60;;;5.68;;
52180;SDS011;38158;53.338;6.514;2024-01-07T01:06:01;9.85;;;5.43;;
52180;SDS011;38158;53.338;6.514;2024-01-07T01:08:27;12.93;;;5.68;;
52180;SDS011;38158;53.338;6.514;2024-01-07T01:10:53;8.70;;;5.03;;
52180;SDS011;38158;53.338;6.514;2024-01-07T01:13:18;11.32;;;5.97;;
52180;SDS011;38158;53.338;6.514;2024-01-07T01:15:44;8.38;;;4.63;;
52180;SDS011;38158;53.338;6.514;2024-01-07T01:18:10;7.80;;;3.80;;
52180;SDS011;38158;53.338;6.514;2024-01-07T01:20:36;9.35;;;5.18;;
52180;SDS011;38158;53.338;6.514;2024-01-07T01:23:01;9.15;;;5.03;;
52180;SDS011;38158;53.338;6.514;2024-01-07T01:25:27;8.07;;;4.93;;
52180;SDS011;38158;53.338;6.514;2024-01-07T01:30:20;10.23;;;4.72;;
52180;SDS011;38158;53.338;6.514;2024-01-07T01:32:46;10.50;;;5.47;;
52180;SDS011;38158;53.338;6.514;2024-01-07T01:35:12;8.68;;;4.50;;
52180;SDS011;38158;53.338;6.514;2024-01-07T01:37:37;10.68;;;4.82;;
52180;SDS011;38158;53.338;6.514;2024-01-07T01:40:03;8.38;;;4.53;;
52180;SDS011;38158;53.338;6.514;2024-01-07T01:42:29;6.30;;;3.85;;
52180;SDS011;38158;53.338;6.514;2024-01-07T01:44:55;8.80;;;4.90;;
52180;SDS011;38158;53.338;6.514;2024-01-07T01:47:24;10.20;;;4.35;;
52180;SDS011;38158;53.338;6.514;2024-01-07T01:49:50;5.53;;;3.35;;
52180;SDS011;38158;53.338;6.514;2024-01-07T01:52:16;8.90;;;4.10;;
52180;SDS011;38158;53.338;6.514;2024-01-07T01:54:42;8.40;;;4.78;;
52180;SDS011;38158;53.338;6.514;2024-01-07T01:57:08;6.82;;;3.67;;
52180;SDS011;38158;53.338;6.514;2024-01-07T01:59:42;6.38;;;3.22;;
52180;SDS011;38158;53.338;6.514;2024-01-07T02:02:08;6.37;;;3.03;;
52180;SDS011;38158;53.338;6.514;2024-01-07T02:04:33;6.43;;;3.85;;
52180;SDS011;38158;53.338;6.514;2024-01-07T02:06:59;5.68;;;2.75;;
52180;SDS011;38158;53.338;6.514;2024-01-07T02:09:25;6.35;;;2.85;;
52180;SDS011;38158;53.338;6.514;2024-01-07T02:11:59;9.50;;;3.60;;
52180;SDS011;38158;53.338;6.514;2024-01-07T02:14:27;7.72;;;3.65;;
52180;SDS011;38158;53.338;6.514;2024-01-07T02:16:52;6.20;;;2.97;;
52180;SDS011;38158;53.338;6.514;2024-01-07T02:19:18;7.20;;;3.67;;
52180;SDS011;38158;53.338;6.514;2024-01-07T02:21:46;5.68;;;3.08;;
52180;SDS011;38158;53.338;6.514;2024-01-07T02:24:15;6.43;;;3.33;;
52180;SDS011;38158;53.338;6.514;2024-01-07T02:26:42;9.18;;;3.35;;
52180;SDS011;38158;53.338;6.514;2024-01-07T02:29:08;5.82;;;3.00;;
52180;SDS011;38158;53.338;6.514;2024-01-07T02:31:34;6.47;;;2.75;;
52180;SDS011;38158;53.338;6.514;2024-01-07T02:33:59;9.80;;;3.42;;
52180;SDS011;38158;53.338;6.514;2024-01-07T02:36:25;5.65;;;2.88;;
52180;SDS011;38158;53.338;6.514;2024-01-07T02:38:51;5.65;;;2.85;;
52180;SDS011;38158;53.338;6.514;2024-01-07T02:41:18;7.53;;;3.40;;
52180;SDS011;38158;53.338;6.514;2024-01-07T02:43:45;6.00;;;2.92;;
52180;SDS011;38158;53.338;6.514;2024-01-07T02:46:10;4.57;;;2.53;;
52180;SDS011;38158;53.338;6.514;2024-01-07T02:48:36;6.13;;;2.72;;
52180;SDS011;38158;53.338;6.514;2024-01-07T02:51:02;5.93;;;2.85;;
52180;SDS011;38158;53.338;6.514;2024-01-07T02:53:30;5.93;;;2.95;;
52180;SDS011;38158;53.338;6.514;2024-01-07T02:55:56;4.47;;;2.45;;
52180;SDS011;38158;53.338;6.514;2024-01-07T02:58:21;5.25;;;2.78;;
52180;SDS011;38158;53.338;6.514;2024-01-07T03:00:47;5.60;;;2.72;;
52180;SDS011;38158;53.338;6.514;2024-01-07T03:03:12;6.72;;;3.15;;
52180;SDS011;38158;53.338;6.514;2024-01-07T03:05:38;5.93;;;2.60;;
52180;SDS011;38158;53.338;6.514;2024-01-07T03:08:04;4.90;;;2.33;;
52180;SDS011;38158;53.338;6.514;2024-01-07T03:10:30;4.75;;;2.33;;
52180;SDS011;38158;53.338;6.514;2024-01-07T03:12:55;6.75;;;2.55;;
52180;SDS011;38158;53.338;6.514;2024-01-07T03:15:21;4.40;;;1.92;;
52180;SDS011;38158;53.338;6.514;2024-01-07T03:17:47;4.22;;;1.75;;
52180;SDS011;38158;53.338;6.514;2024-01-07T03:20:12;4.60;;;1.80;;
52180;SDS011;38158;53.338;6.514;2024-01-07T03:22:38;6.40;;;2.70;;
52180;SDS011;38158;53.338;6.514;2024-01-07T03:25:04;5.53;;;2.05;;
52180;SDS011;38158;53.338;6.514;2024-01-07T03:27:30;4.53;;;2.03;;
52180;SDS011;38158;53.338;6.514;2024-01-07T03:29:55;4.85;;;2.08;;
52180;SDS011;38158;53.338;6.514;2024-01-07T03:32:21;4.57;;;1.98;;
52180;SDS011;38158;53.338;6.514;2024-01-07T03:34:49;4.97;;;2.00;;
52180;SDS011;38158;53.338;6.514;2024-01-07T03:37:15;6.60;;;2.05;;
52180;SDS011;38158;53.338;6.514;2024-01-07T03:39:42;4.22;;;2.53;;
52180;SDS011;38158;53.338;6.514;2024-01-07T03:42:10;7.30;;;2.92;;
52180;SDS011;38158;53.338;6.514;2024-01-07T03:44:39;5.65;;;2.22;;
52180;SDS011;38158;53.338;6.514;2024-01-07T03:47:05;6.72;;;2.72;;
52180;SDS011;38158;53.338;6.514;2024-01-07T03:49:31;3.92;;;1.75;;
52180;SDS011;38158;53.338;6.514;2024-01-07T03:51:57;6.10;;;2.40;;
52180;SDS011;38158;53.338;6.514;2024-01-07T03:54:23;4.70;;;2.50;;
52180;SDS011;38158;53.338;6.514;2024-01-07T03:56:48;5.80;;;2.22;;
52180;SDS011;38158;53.338;6.514;2024-01-07T03:59:14;6.55;;;2.58;;
52180;SDS011;38158;53.338;6.514;2024-01-07T04:01:39;5.15;;;2.28;;
52180;SDS011;38158;53.338;6.514;2024-01-07T04:04:05;4.35;;;1.88;;
52180;SDS011;38158;53.338;6.514;2024-01-07T04:06:31;7.78;;;2.00;;
52180;SDS011;38158;53.338;6.514;2024-01-07T04:08:56;5.60;;;2.25;;
52180;SDS011;38158;53.338;6.514;2024-01-07T04:11:22;6.72;;;1.85;;
52180;SDS011;38158;53.338;6.514;2024-01-07T04:13:47;4.15;;;1.83;;
52180;SDS011;38158;53.338;6.514;2024-01-07T04:16:17;3.95;;;1.95;;
52180;SDS011;38158;53.338;6.514;2024-01-07T04:18:43;4.50;;;1.98;;
52180;SDS011;38158;53.338;6.514;2024-01-07T04:21:13;4.40;;;1.70;;
52180;SDS011;38158;53.338;6.514;2024-01-07T04:23:39;4.25;;;1.92;;
52180;SDS011;38158;53.338;6.514;2024-01-07T04:26:08;5.47;;;1.50;;
52180;SDS011;38158;53.338;6.514;2024-01-07T04:28:35;3.85;;;1.70;;
52180;SDS011;38158;53.338;6.514;2024-01-07T04:31:01;4.50;;;1.55;;
52180;SDS011;38158;53.338;6.514;2024-01-07T04:33:26;6.78;;;2.00;;
52180;SDS011;38158;53.338;6.514;2024-01-07T04:35:52;4.05;;;2.05;;
52180;SDS011;38158;53.338;6.514;2024-01-07T04:38:22;4.50;;;1.67;;
52180;SDS011;38158;53.338;6.514;2024-01-07T04:40:48;6.28;;;2.03;;
52180;SDS011;38158;53.338;6.514;2024-01-07T04:43:14;3.55;;;1.48;;
52180;SDS011;38158;53.338;6.514;2024-01-07T04:45:39;7.95;;;1.73;;
52180;SDS011;38158;53.338;6.514;2024-01-07T04:48:05;3.88;;;1.65;;
52180;SDS011;38158;53.338;6.514;2024-01-07T04:50:31;3.80;;;1.67;;
52180;SDS011;38158;53.338;6.514;2024-01-07T04:52:57;4.57;;;1.42;;
52180;SDS011;38158;53.338;6.514;2024-01-07T04:55:22;2.88;;;1.45;;
52180;SDS011;38158;53.338;6.514;2024-01-07T04:57:48;4.18;;;1.50;;
52180;SDS011;38158;53.338;6.514;2024-01-07T05:00:14;3.22;;;1.20;;
52180;SDS011;38158;53.338;6.514;2024-01-07T05:02:39;4.38;;;1.30;;
52180;SDS011;38158;53.338;6.514;2024-01-07T05:05:07;3.60;;;1.20;;
52180;SDS011;38158;53.338;6.514;2024-01-07T05:07:33;4.95;;;1.67;;
52180;SDS011;38158;53.338;6.514;2024-01-07T05:09:59;5.13;;;1.73;;
52180;SDS011;38158;53.338;6.514;2024-01-07T05:12:24;3.10;;;1.33;;
52180;SDS011;38158;53.338;6.514;2024-01-07T05:14:51;3.60;;;1.33;;
52180;SDS011;38158;53.338;6.514;2024-01-07T05:17:16;2.63;;;1.35;;
52180;SDS011;38158;53.338;6.514;2024-01-07T05:19:42;4.38;;;1.23;;
52180;SDS011;38158;53.338;6.514;2024-01-07T05:22:08;3.47;;;1.48;;
52180;SDS011;38158;53.338;6.514;2024-01-07T05:24:36;3.50;;;1.40;;
52180;SDS011;38158;53.338;6.514;2024-01-07T05:27:02;5.25;;;1.27;;
52180;SDS011;38158;53.338;6.514;2024-01-07T05:29:28;4.10;;;1.05;;
52180;SDS011;38158;53.338;6.514;2024-01-07T05:31:54;2.72;;;1.10;;
52180;SDS011;38158;53.338;6.514;2024-01-07T05:34:19;3.45;;;1.17;;
52180;SDS011;38158;53.338;6.514;2024-01-07T05:36:45;4.65;;;0.93;;
52180;SDS011;38158;53.338;6.514;2024-01-07T05:39:10;2.17;;;1.00;;
52180;SDS011;38158;53.338;6.514;2024-01-07T05:41:36;2.72;;;1.00;;
52180;SDS011;38158;53.338;6.514;2024-01-07T05:44:05;4.55;;;1.35;;
52180;SDS011;38158;53.338;6.514;2024-01-07T05:46:31;3.90;;;1.10;;
52180;SDS011;38158;53.338;6.514;2024-01-07T05:48:58;2.88;;;0.88;;
52180;SDS011;38158;53.338;6.514;2024-01-07T05:51:23;4.05;;;1.27;;
52180;SDS011;38158;53.338;6.514;2024-01-07T05:53:49;2.53;;;1.05;;
52180;SDS011;38158;53.338;6.514;2024-01-07T05:56:15;3.35;;;1.02;;
52180;SDS011;38158;53.338;6.514;2024-01-07T05:58:40;2.63;;;1.20;;
52180;SDS011;38158;53.338;6.514;2024-01-07T06:01:07;4.75;;;1.20;;
52180;SDS011;38158;53.338;6.514;2024-01-07T06:03:33;2.85;;;0.90;;
52180;SDS011;38158;53.338;6.514;2024-01-07T06:05:59;2.20;;;0.90;;
52180;SDS011;38158;53.338;6.514;2024-01-07T06:08:28;3.22;;;0.90;;
52180;SDS011;38158;53.338;6.514;2024-01-07T06:10:53;4.45;;;1.05;;
52180;SDS011;38158;53.338;6.514;2024-01-07T06:13:19;3.60;;;1.20;;
52180;SDS011;38158;53.338;6.514;2024-01-07T06:15:45;3.75;;;0.90;;
52180;SDS011;38158;53.338;6.514;2024-01-07T06:18:10;2.78;;;1.20;;
52180;SDS011;38158;53.338;6.514;2024-01-07T06:20:36;4.00;;;1.13;;
52180;SDS011;38158;53.338;6.514;2024-01-07T06:23:02;3.38;;;1.00;;
52180;SDS011;38158;53.338;6.514;2024-01-07T06:25:27;3.67;;;1.23;;
52180;SDS011;38158;53.338;6.514;2024-01-07T06:27:53;3.65;;;1.50;;
52180;SDS011;38158;53.338;6.514;2024-01-07T06:30:19;1.50;;;0.68;;
52180;SDS011;38158;53.338;6.514;2024-01-07T06:32:44;4.00;;;1.20;;
52180;SDS011;38158;53.338;6.514;2024-01-07T06:35:10;7.68;;;1.40;;
52180;SDS011;38158;53.338;6.514;2024-01-07T06:37:36;3.83;;;0.95;;
52180;SDS011;38158;53.338;6.514;2024-01-07T06:40:02;3.88;;;1.17;;
52180;SDS011;38158;53.338;6.514;2024-01-07T06:42:28;5.00;;;1.20;;
52180;SDS011;38158;53.338;6.514;2024-01-07T06:44:54;2.53;;;1.08;;
52180;SDS011;38158;53.338;6.514;2024-01-07T06:47:19;3.17;;;0.90;;
52180;SDS011;38158;53.338;6.514;2024-01-07T06:49:45;3.08;;;1.17;;
52180;SDS011;38158;53.338;6.514;2024-01-07T06:52:11;1.88;;;1.13;;
52180;SDS011;38158;53.338;6.514;2024-01-07T06:54:36;4.13;;;1.30;;
52180;SDS011;38158;53.338;6.514;2024-01-07T06:57:04;3.97;;;1.27;;
52180;SDS011;38158;53.338;6.514;2024-01-07T06:59:29;2.97;;;1.00;;
52180;SDS011;38158;53.338;6.514;2024-01-07T07:01:55;3.35;;;0.90;;
52180;SDS011;38158;53.338;6.514;2024-01-07T07:04:22;3.43;;;0.97;;
52180;SDS011;38158;53.338;6.514;2024-01-07T07:06:47;3.53;;;1.27;;
52180;SDS011;38158;53.338;6.514;2024-01-07T07:09:13;2.45;;;1.08;;
52180;SDS011;38158;53.338;6.514;2024-01-07T07:11:40;3.60;;;1.30;;
52180;SDS011;38158;53.338;6.514;2024-01-07T07:14:06;4.13;;;1.33;;
52180;SDS011;38158;53.338;6.514;2024-01-07T07:16:32;2.63;;;0.85;;
52180;SDS011;38158;53.338;6.514;2024-01-07T07:18:57;5.65;;;1.25;;
52180;SDS011;38158;53.338;6.514;2024-01-07T07:21:23;4.13;;;1.10;;
52180;SDS011;38158;53.338;6.514;2024-01-07T07:23:48;3.95;;;1.48;;
52180;SDS011;38158;53.338;6.514;2024-01-07T07:26:14;4.43;;;1.33;;
52180;SDS011;38158;53.338;6.514;2024-01-07T07:28:40;3.28;;;1.00;;
52180;SDS011;38158;53.338;6.514;2024-01-07T07:31:05;3.13;;;1.40;;
52180;SDS011;38158;53.338;6.514;2024-01-07T07:33:31;4.32;;;1.30;;
52180;SDS011;38158;53.338;6.514;2024-01-07T07:35:57;3.58;;;1.20;;
52180;SDS011;38158;53.338;6.514;2024-01-07T07:38:22;2.97;;;1.40;;
52180;SDS011;38158;53.338;6.514;2024-01-07T07:40:48;3.03;;;1.42;;
52180;SDS011;38158;53.338;6.514;2024-01-07T07:43:18;3.60;;;1.30;;
52180;SDS011;38158;53.338;6.514;2024-01-07T07:45:45;3.90;;;1.30;;
52180;SDS011;38158;53.338;6.514;2024-01-07T07:48:11;4.72;;;1.92;;
52180;SDS011;38158;53.338;6.514;2024-01-07T07:50:37;2.53;;;1.02;;
52180;SDS011;38158;53.338;6.514;2024-01-07T07:53:03;2.53;;;1.30;;
52180;SDS011;38158;53.338;6.514;2024-01-07T07:55:28;3.47;;;1.48;;
52180;SDS011;38158;53.338;6.514;2024-01-07T07:57:54;4.25;;;1.58;;
52180;SDS011;38158;53.338;6.514;2024-01-07T08:00:20;4.53;;;1.75;;
52180;SDS011;38158;53.338;6.514;2024-01-07T08:02:45;4.05;;;1.70;;
52180;SDS011;38158;53.338;6.514;2024-01-07T08:05:11;7.45;;;1.67;;
52180;SDS011;38158;53.338;6.514;2024-01-07T08:07:37;4.25;;;1.63;;
52180;SDS011;38158;53.338;6.514;2024-01-07T08:10:02;3.63;;;1.67;;
52180;SDS011;38158;53.338;6.514;2024-01-07T08:12:29;11.65;;;3.25;;
52180;SDS011;38158;53.338;6.514;2024-01-07T08:14:54;3.85;;;1.83;;
52180;SDS011;38158;53.338;6.514;2024-01-07T08:17:20;5.63;;;1.85;;
52180;SDS011;38158;53.338;6.514;2024-01-07T08:19:46;4.10;;;1.60;;
52180;SDS011;38158;53.338;6.514;2024-01-07T08:22:11;4.55;;;1.65;;
52180;SDS011;38158;53.338;6.514;2024-01-07T08:24:37;4.03;;;1.80;;
52180;SDS011;38158;53.338;6.514;2024-01-07T08:27:03;3.30;;;1.60;;
52180;SDS011;38158;53.338;6.514;2024-01-07T08:29:29;3.40;;;1.33;;
52180;SDS011;38158;53.338;6.514;2024-01-07T08:31:55;1.90;;;1.00;;
52180;SDS011;38158;53.338;6.514;2024-01-07T08:34:20;2.92;;;1.05;;
52180;SDS011;38158;53.338;6.514;2024-01-07T08:36:46;7.25;;;1.92;;
52180;SDS011;38158;53.338;6.514;2024-01-07T08:39:15;3.42;;;1.55;;
52180;SDS011;38158;53.338;6.514;2024-01-07T08:41:41;3.33;;;1.20;;
52180;SDS011;38158;53.338;6.514;2024-01-07T08:44:07;1.88;;;1.33;;
52180;SDS011;38158;53.338;6.514;2024-01-07T08:46:35;3.28;;;1.25;;
52180;SDS011;38158;53.338;6.514;2024-01-07T08:49:01;4.07;;;1.55;;
52180;SDS011;38158;53.338;6.514;2024-01-07T08:51:27;3.60;;;1.33;;
52180;SDS011;38158;53.338;6.514;2024-01-07T08:53:54;2.78;;;1.15;;
52180;SDS011;38158;53.338;6.514;2024-01-07T08:56:22;4.50;;;1.48;;
52180;SDS011;38158;53.338;6.514;2024-01-07T08:58:48;3.65;;;1.20;;
52180;SDS011;38158;53.338;6.514;2024-01-07T09:01:13;2.85;;;1.17;;
52180;SDS011;38158;53.338;6.514;2024-01-07T09:03:39;4.95;;;1.27;;
52180;SDS011;38158;53.338;6.514;2024-01-07T09:06:06;4.00;;;1.13;;
52180;SDS011;38158;53.338;6.514;2024-01-07T09:08:32;5.28;;;1.38;;
52180;SDS011;38158;53.338;6.514;2024-01-07T09:10:59;3.35;;;1.48;;
52180;SDS011;38158;53.338;6.514;2024-01-07T09:13:25;2.92;;;1.40;;
52180;SDS011;38158;53.338;6.514;2024-01-07T09:15:51;4.43;;;1.25;;
52180;SDS011;38158;53.338;6.514;2024-01-07T09:18:16;3.35;;;1.20;;
52180;SDS011;38158;53.338;6.514;2024-01-07T09:20:43;4.28;;;1.35;;
52180;SDS011;38158;53.338;6.514;2024-01-07T09:23:09;4.30;;;1.45;;
52180;SDS011;38158;53.338;6.514;2024-01-07T09:25:34;1.95;;;1.10;;
52180;SDS011;38158;53.338;6.514;2024-01-07T09:28:00;6.32;;;1.35;;
52180;SDS011;38158;53.338;6.514;2024-01-07T09:30:26;10.05;;;1.58;;
52180;SDS011;38158;53.338;6.514;2024-01-07T09:32:51;5.25;;;1.98;;
52180;SDS011;38158;53.338;6.514;2024-01-07T09:35:17;5.75;;;1.63;;
52180;SDS011;38158;53.338;6.514;2024-01-07T09:37:43;3.55;;;1.40;;
52180;SDS011;38158;53.338;6.514;2024-01-07T09:40:08;5.40;;;1.73;;
52180;SDS011;38158;53.338;6.514;2024-01-07T09:42:34;5.50;;;1.93;;
52180;SDS011;38158;53.338;6.514;2024-01-07T09:45:03;7.07;;;1.73;;
52180;SDS011;38158;53.338;6.514;2024-01-07T09:47:29;4.72;;;2.17;;
52180;SDS011;38158;53.338;6.514;2024-01-07T09:49:55;6.00;;;2.22;;
52180;SDS011;38158;53.338;6.514;2024-01-07T09:52:21;6.15;;;2.13;;
52180;SDS011;38158;53.338;6.514;2024-01-07T09:54:49;3.90;;;1.73;;
52180;SDS011;38158;53.338;6.514;2024-01-07T09:57:17;6.05;;;1.70;;
52180;SDS011;38158;53.338;6.514;2024-01-07T09:59:42;3.60;;;1.60;;
52180;SDS011;38158;53.338;6.514;2024-01-07T10:02:08;4.57;;;1.85;;
52180;SDS011;38158;53.338;6.514;2024-01-07T10:04:34;6.37;;;1.80;;
52180;SDS011;38158;53.338;6.514;2024-01-07T10:07:00;3.85;;;1.40;;
52180;SDS011;38158;53.338;6.514;2024-01-07T10:09:29;4.68;;;2.10;;
52180;SDS011;38158;53.338;6.514;2024-01-07T10:11:58;4.63;;;1.95;;
52180;SDS011;38158;53.338;6.514;2024-01-07T10:14:24;3.55;;;1.83;;
52180;SDS011;38158;53.338;6.514;2024-01-07T10:16:52;4.30;;;1.83;;
52180;SDS011;38158;53.338;6.514;2024-01-07T10:19:22;3.58;;;1.73;;
52180;SDS011;38158;53.338;6.514;2024-01-07T10:22:04;4.07;;;1.80;;
52180;SDS011;38158;53.338;6.514;2024-01-07T10:24:39;3.85;;;1.70;;
52180;SDS011;38158;53.338;6.514;2024-01-07T10:27:06;2.92;;;1.52;;
52180;SDS011;38158;53.338;6.514;2024-01-07T10:29:33;3.70;;;1.75;;
52180;SDS011;38158;53.338;6.514;2024-01-07T10:31:59;4.80;;;1.95;;
52180;SDS011;38158;53.338;6.514;2024-01-07T10:34:32;6.00;;;2.20;;
52180;SDS011;38158;53.338;6.514;2024-01-07T10:37:02;6.30;;;2.20;;
52180;SDS011;38158;53.338;6.514;2024-01-07T10:39:29;5.22;;;1.70;;
52180;SDS011;38158;53.338;6.514;2024-01-07T10:41:55;4.60;;;1.38;;
52180;SDS011;38158;53.338;6.514;2024-01-07T10:44:26;3.95;;;1.92;;
52180;SDS011;38158;53.338;6.514;2024-01-07T10:46:54;4.75;;;1.65;;
52180;SDS011;38158;53.338;6.514;2024-01-07T10:49:21;4.13;;;1.67;;
52180;SDS011;38158;53.338;6.514;2024-01-07T10:54:31;4.45;;;1.83;;
52180;SDS011;38158;53.338;6.514;2024-01-07T11:00:10;5.75;;;2.08;;
52180;SDS011;38158;53.338;6.514;2024-01-07T11:02:49;4.88;;;1.70;;
52180;SDS011;38158;53.338;6.514;2024-01-07T11:05:25;4.10;;;1.92;;
52180;SDS011;38158;53.338;6.514;2024-01-07T11:08:05;7.22;;;2.03;;
52180;SDS011;38158;53.338;6.514;2024-01-07T11:10:43;5.07;;;2.65;;
52180;SDS011;38158;53.338;6.514;2024-01-07T11:13:36;5.88;;;2.35;;
52180;SDS011;38158;53.338;6.514;2024-01-07T11:16:08;5.78;;;3.08;;
52180;SDS011;38158;53.338;6.514;2024-01-07T11:18:45;4.30;;;2.42;;
52180;SDS011;38158;53.338;6.514;2024-01-07T11:21:20;5.05;;;2.63;;
52180;SDS011;38158;53.338;6.514;2024-01-07T11:23:49;8.80;;;2.38;;
52180;SDS011;38158;53.338;6.514;2024-01-07T11:26:17;6.30;;;2.15;;
52180;SDS011;38158;53.338;6.514;2024-01-07T11:28:58;7.88;;;3.25;;
52180;SDS011;38158;53.338;6.514;2024-01-07T11:31:44;5.50;;;2.25;;
52180;SDS011;38158;53.338;6.514;2024-01-07T11:37:17;7.53;;;2.70;;
52180;SDS011;38158;53.338;6.514;2024-01-07T11:39:43;9.43;;;3.13;;
52180;SDS011;38158;53.338;6.514;2024-01-07T11:42:15;5.63;;;2.80;;
52180;SDS011;38158;53.338;6.514;2024-01-07T11:44:47;9.90;;;3.20;;
52180;SDS011;38158;53.338;6.514;2024-01-07T11:47:13;5.25;;;2.38;;
52180;SDS011;38158;53.338;6.514;2024-01-07T11:49:41;6.35;;;2.40;;
52180;SDS011;38158;53.338;6.514;2024-01-07T11:52:06;5.65;;;2.10;;
52180;SDS011;38158;53.338;6.514;2024-01-07T11:56:59;6.85;;;2.72;;
52180;SDS011;38158;53.338;6.514;2024-01-07T11:59:26;6.00;;;2.30;;
52180;SDS011;38158;53.338;6.514;2024-01-07T12:01:52;6.72;;;3.08;;
52180;SDS011;38158;53.338;6.514;2024-01-07T12:04:29;6.32;;;2.47;;
52180;SDS011;38158;53.338;6.514;2024-01-07T12:06:55;6.23;;;2.40;;
52180;SDS011;38158;53.338;6.514;2024-01-07T12:09:21;8.63;;;2.50;;
52180;SDS011;38158;53.338;6.514;2024-01-07T12:11:47;7.93;;;3.00;;
52180;SDS011;38158;53.338;6.514;2024-01-07T12:14:14;4.38;;;2.15;;
52180;SDS011;38158;53.338;6.514;2024-01-07T12:16:40;5.57;;;1.92;;
52180;SDS011;38158;53.338;6.514;2024-01-07T12:19:05;6.47;;;2.33;;
52180;SDS011;38158;53.338;6.514;2024-01-07T12:23:58;8.77;;;2.47;;
52180;SDS011;38158;53.338;6.514;2024-01-07T12:26:26;7.40;;;2.25;;
52180;SDS011;38158;53.338;6.514;2024-01-07T12:28:53;4.20;;;1.50;;
52180;SDS011;38158;53.338;6.514;2024-01-07T12:31:27;5.18;;;2.33;;
52180;SDS011;38158;53.338;6.514;2024-01-07T12:33:53;5.60;;;2.05;;
52180;SDS011;38158;53.338;6.514;2024-01-07T12:36:22;5.47;;;2.20;;
52180;SDS011;38158;53.338;6.514;2024-01-07T12:38:48;4.35;;;2.22;;
52180;SDS011;38158;53.338;6.514;2024-01-07T12:41:19;4.40;;;1.95;;
52180;SDS011;38158;53.338;6.514;2024-01-07T12:43:45;5.30;;;1.77;;
52180;SDS011;38158;53.338;6.514;2024-01-07T12:46:11;4.22;;;1.85;;
52180;SDS011;38158;53.338;6.514;2024-01-07T12:48:37;5.57;;;1.95;;
52180;SDS011;38158;53.338;6.514;2024-01-07T12:51:02;5.05;;;1.95;;
52180;SDS011;38158;53.338;6.514;2024-01-07T12:53:28;4.35;;;1.95;;
52180;SDS011;38158;53.338;6.514;2024-01-07T12:55:54;5.63;;;2.47;;
52180;SDS011;38158;53.338;6.514;2024-01-07T12:58:20;6.00;;;1.88;;
52180;SDS011;38158;53.338;6.514;2024-01-07T13:03:13;6.40;;;2.08;;
52180;SDS011;38158;53.338;6.514;2024-01-07T13:05:43;12.30;;;2.15;;
52180;SDS011;38158;53.338;6.514;2024-01-07T13:08:09;6.05;;;2.20;;
52180;SDS011;38158;53.338;6.514;2024-01-07T13:10:34;5.72;;;1.83;;
52180;SDS011;38158;53.338;6.514;2024-01-07T13:13:00;6.75;;;2.35;;
52180;SDS011;38158;53.338;6.514;2024-01-07T13:15:26;5.45;;;2.10;;
52180;SDS011;38158;53.338;6.514;2024-01-07T13:17:51;4.05;;;2.20;;
52180;SDS011;38158;53.338;6.514;2024-01-07T13:20:17;5.50;;;2.70;;
52180;SDS011;38158;53.338;6.514;2024-01-07T13:22:45;8.57;;;2.40;;
52180;SDS011;38158;53.338;6.514;2024-01-07T13:25:11;6.38;;;2.20;;
52180;SDS011;38158;53.338;6.514;2024-01-07T13:27:37;5.88;;;2.35;;
52180;SDS011;38158;53.338;6.514;2024-01-07T13:30:03;4.13;;;2.10;;
52180;SDS011;38158;53.338;6.514;2024-01-07T13:32:32;6.47;;;2.60;;
52180;SDS011;38158;53.338;6.514;2024-01-07T13:35:02;5.32;;;2.28;;
52180;SDS011;38158;53.338;6.514;2024-01-07T13:37:29;5.97;;;2.22;;
52180;SDS011;38158;53.338;6.514;2024-01-07T13:39:56;5.43;;;2.72;;
52180;SDS011;38158;53.338;6.514;2024-01-07T13:42:22;8.55;;;2.90;;
52180;SDS011;38158;53.338;6.514;2024-01-07T13:44:48;9.70;;;3.38;;
52180;SDS011;38158;53.338;6.514;2024-01-07T13:47:13;8.00;;;2.75;;
52180;SDS011;38158;53.338;6.514;2024-01-07T13:49:40;8.02;;;3.80;;
52180;SDS011;38158;53.338;6.514;2024-01-07T13:52:06;5.55;;;2.50;;
52180;SDS011;38158;53.338;6.514;2024-01-07T13:54:32;6.53;;;2.45;;
52180;SDS011;38158;53.338;6.514;2024-01-07T13:56:57;7.18;;;2.42;;
52180;SDS011;38158;53.338;6.514;2024-01-07T13:59:24;9.20;;;3.42;;
52180;SDS011;38158;53.338;6.514;2024-01-07T14:01:51;5.18;;;2.25;;
52180;SDS011;38158;53.338;6.514;2024-01-07T14:04:17;4.10;;;2.42;;
52180;SDS011;38158;53.338;6.514;2024-01-07T14:06:42;4.07;;;2.15;;
52180;SDS011;38158;53.338;6.514;2024-01-07T14:09:09;4.55;;;1.90;;
52180;SDS011;38158;53.338;6.514;2024-01-07T14:11:35;6.13;;;2.55;;
52180;SDS011;38158;53.338;6.514;2024-01-07T14:14:01;5.18;;;2.30;;
52180;SDS011;38158;53.338;6.514;2024-01-07T14:16:29;8.02;;;3.85;;
52180;SDS011;38158;53.338;6.514;2024-01-07T14:18:54;11.98;;;5.82;;
52180;SDS011;38158;53.338;6.514;2024-01-07T14:21:20;15.52;;;5.75;;
52180;SDS011;38158;53.338;6.514;2024-01-07T14:23:46;12.68;;;6.82;;
52180;SDS011;38158;53.338;6.514;2024-01-07T14:26:13;13.75;;;7.03;;
52180;SDS011;38158;53.338;6.514;2024-01-07T14:28:40;6.88;;;3.50;;
52180;SDS011;38158;53.338;6.514;2024-01-07T14:31:05;9.60;;;3.67;;
52180;SDS011;38158;53.338;6.514;2024-01-07T14:33:32;4.75;;;2.70;;
52180;SDS011;38158;53.338;6.514;2024-01-07T14:35:58;5.68;;;3.17;;
52180;SDS011;38158;53.338;6.514;2024-01-07T14:38:23;64.53;;;36.17;;
52180;SDS011;38158;53.338;6.514;2024-01-07T14:40:50;50.97;;;28.55;;
52180;SDS011;38158;53.338;6.514;2024-01-07T14:43:17;55.90;;;33.17;;
52180;SDS011;38158;53.338;6.514;2024-01-07T14:45:42;54.40;;;32.70;;
52180;SDS011;38158;53.338;6.514;2024-01-07T14:48:08;24.35;;;12.52;;
52180;SDS011;38158;53.338;6.514;2024-01-07T14:50:34;14.48;;;7.22;;
52180;SDS011;38158;53.338;6.514;2024-01-07T14:53:00;10.68;;;5.13;;
52180;SDS011;38158;53.338;6.514;2024-01-07T14:55:26;8.63;;;3.67;;
52180;SDS011;38158;53.338;6.514;2024-01-07T14:57:51;8.48;;;3.83;;
52180;SDS011;38158;53.338;6.514;2024-01-07T15:00:17;7.55;;;3.63;;
52180;SDS011;38158;53.338;6.514;2024-01-07T15:02:43;7.55;;;3.40;;